sensor_id;sensor_type;location;lat;lon;timestamp;P1;durP1;ratioP1;P2;durP2;ratioP2
46407;SDS011;32110;45.724;21.276;2022-08-25T15:14:45;22.02;;;3.45;;
46407;SDS011;32110;45.724;21.276;2022-08-25T15:17:11;27.02;;;3.65;;
46407;SDS011;32110;45.724;21.276;2022-08-25T15:19:37;21.58;;;3.70;;
46407;SDS011;32110;45.724;21.276;2022-08-25T15:22:03;24.73;;;4.43;;
46407;SDS011;32110;45.724;21.276;2022-08-25T15:24:28;26.42;;;3.63;;
46407;SDS011;32110;45.724;21.276;2022-08-25T15:26:55;19.52;;;3.10;;
46407;SDS011;32110;45.724;21.276;2022-08-25T15:29:26;20.65;;;3.22;;
46407;SDS011;32110;45.724;21.276;2022-08-25T15:31:54;21.48;;;3.00;;
46407;SDS011;32110;45.724;21.276;2022-08-25T15:34:20;29.67;;;4.47;;
46407;SDS011;32110;45.724;21.276;2022-08-25T15:36:45;27.40;;;4.30;;
46407;SDS011;32110;45.724;21.276;2022-08-25T15:39:11;31.83;;;3.83;;
46407;SDS011;32110;45.724;21.276;2022-08-25T15:41:37;27.13;;;3.78;;
46407;SDS011;32110;45.724;21.276;2022-08-25T15:44:03;32.05;;;4.07;;
46407;SDS011;32110;45.724;21.276;2022-08-25T15:46:30;27.95;;;3.85;;
46407;SDS011;32110;45.724;21.276;2022-08-25T15:48:56;28.23;;;4.15;;
46407;SDS011;32110;45.724;21.276;2022-08-25T15:51:23;40.22;;;3.95;;
46407;SDS011;32110;45.724;21.276;2022-08-25T15:53:50;34.08;;;4.00;;
46407;SDS011;32110;45.724;21.276;2022-08-25T15:56:15;28.13;;;3.47;;
46407;SDS011;32110;45.724;21.276;2022-08-25T15:58:43;31.60;;;4.10;;
46407;SDS011;32110;45.724;21.276;2022-08-25T16:01:14;19.97;;;3.50;;
46407;SDS011;32110;45.724;21.276;2022-08-25T16:03:42;16.88;;;4.32;;
46407;SDS011;32110;45.724;21.276;2022-08-25T16:06:07;22.10;;;3.63;;
46407;SDS011;32110;45.724;21.276;2022-08-25T16:08:33;29.98;;;3.83;;
46407;SDS011;32110;45.724;21.276;2022-08-25T16:10:59;20.20;;;4.10;;
46407;SDS011;32110;45.724;21.276;2022-08-25T16:13:24;34.85;;;3.92;;
46407;SDS011;32110;45.724;21.276;2022-08-25T16:15:50;28.02;;;3.80;;
46407;SDS011;32110;45.724;21.276;2022-08-25T16:18:15;30.27;;;3.95;;
46407;SDS011;32110;45.724;21.276;2022-08-25T16:20:42;23.52;;;4.20;;
46407;SDS011;32110;45.724;21.276;2022-08-25T16:23:11;24.75;;;3.53;;
46407;SDS011;32110;45.724;21.276;2022-08-25T16:25:40;29.05;;;3.75;;
46407;SDS011;32110;45.724;21.276;2022-08-25T16:28:08;34.72;;;4.57;;
46407;SDS011;32110;45.724;21.276;2022-08-25T16:30:35;28.70;;;4.47;;
46407;SDS011;32110;45.724;21.276;2022-08-25T16:33:04;34.65;;;4.43;;
46407;SDS011;32110;45.724;21.276;2022-08-25T16:37:58;30.08;;;4.18;;
46407;SDS011;32110;45.724;21.276;2022-08-25T16:40:24;25.42;;;4.25;;
46407;SDS011;32110;45.724;21.276;2022-08-25T16:42:53;34.83;;;5.85;;
46407;SDS011;32110;45.724;21.276;2022-08-25T16:45:19;28.13;;;7.93;;
46407;SDS011;32110;45.724;21.276;2022-08-25T16:47:45;28.63;;;7.22;;
46407;SDS011;32110;45.724;21.276;2022-08-25T16:50:10;36.72;;;6.88;;
46407;SDS011;32110;45.724;21.276;2022-08-25T16:52:36;37.35;;;7.18;;
46407;SDS011;32110;45.724;21.276;2022-08-25T16:55:20;29.23;;;6.35;;
46407;SDS011;32110;45.724;21.276;2022-08-25T16:57:47;41.60;;;5.60;;
46407;SDS011;32110;45.724;21.276;2022-08-25T17:00:22;31.02;;;5.18;;
46407;SDS011;32110;45.724;21.276;2022-08-25T17:02:53;21.35;;;4.53;;
46407;SDS011;32110;45.724;21.276;2022-08-25T17:05:23;25.40;;;5.18;;
46407;SDS011;32110;45.724;21.276;2022-08-25T17:07:50;31.67;;;5.30;;
46407;SDS011;32110;45.724;21.276;2022-08-25T17:13:06;24.27;;;4.43;;
46407;SDS011;32110;45.724;21.276;2022-08-25T17:15:31;28.30;;;5.13;;
46407;SDS011;32110;45.724;21.276;2022-08-25T17:17:57;31.45;;;5.70;;
46407;SDS011;32110;45.724;21.276;2022-08-25T17:20:22;49.10;;;19.50;;
46407;SDS011;32110;45.724;21.276;2022-08-25T17:22:48;47.08;;;20.73;;
46407;SDS011;32110;45.724;21.276;2022-08-25T17:25:14;46.65;;;20.83;;
46407;SDS011;32110;45.724;21.276;2022-08-25T17:27:40;49.63;;;20.15;;
46407;SDS011;32110;45.724;21.276;2022-08-25T17:30:05;37.55;;;15.52;;
46407;SDS011;32110;45.724;21.276;2022-08-25T17:32:31;31.30;;;7.93;;
46407;SDS011;32110;45.724;21.276;2022-08-25T17:34:57;37.55;;;7.70;;
46407;SDS011;32110;45.724;21.276;2022-08-25T17:37:23;36.63;;;7.10;;
46407;SDS011;32110;45.724;21.276;2022-08-25T17:39:49;46.05;;;8.90;;
46407;SDS011;32110;45.724;21.276;2022-08-25T17:42:14;32.15;;;7.60;;
46407;SDS011;32110;45.724;21.276;2022-08-25T17:44:40;33.13;;;6.82;;
46407;SDS011;32110;45.724;21.276;2022-08-25T17:47:05;30.02;;;7.47;;
46407;SDS011;32110;45.724;21.276;2022-08-25T17:49:30;29.63;;;8.70;;
46407;SDS011;32110;45.724;21.276;2022-08-25T17:51:56;32.97;;;9.75;;
46407;SDS011;32110;45.724;21.276;2022-08-25T17:54:21;35.33;;;8.55;;
46407;SDS011;32110;45.724;21.276;2022-08-25T17:56:46;30.88;;;6.95;;
46407;SDS011;32110;45.724;21.276;2022-08-25T17:59:12;30.80;;;6.43;;
46407;SDS011;32110;45.724;21.276;2022-08-25T18:01:37;28.48;;;6.53;;
46407;SDS011;32110;45.724;21.276;2022-08-25T18:04:03;24.95;;;5.65;;
46407;SDS011;32110;45.724;21.276;2022-08-25T18:06:30;33.30;;;6.70;;
46407;SDS011;32110;45.724;21.276;2022-08-25T18:08:56;23.35;;;5.07;;
46407;SDS011;32110;45.724;21.276;2022-08-25T18:11:22;25.95;;;5.40;;
46407;SDS011;32110;45.724;21.276;2022-08-25T18:13:48;22.95;;;4.40;;
46407;SDS011;32110;45.724;21.276;2022-08-25T18:16:16;34.38;;;5.00;;
46407;SDS011;32110;45.724;21.276;2022-08-25T18:18:42;23.05;;;3.78;;
46407;SDS011;32110;45.724;21.276;2022-08-25T18:21:12;29.08;;;5.05;;
46407;SDS011;32110;45.724;21.276;2022-08-25T18:23:39;27.42;;;4.75;;
46407;SDS011;32110;45.724;21.276;2022-08-25T18:26:06;29.52;;;5.07;;
46407;SDS011;32110;45.724;21.276;2022-08-25T18:28:32;26.27;;;5.00;;
46407;SDS011;32110;45.724;21.276;2022-08-25T18:30:58;25.02;;;4.88;;
46407;SDS011;32110;45.724;21.276;2022-08-25T18:33:23;24.55;;;5.40;;
46407;SDS011;32110;45.724;21.276;2022-08-25T18:35:49;28.10;;;4.97;;
46407;SDS011;32110;45.724;21.276;2022-08-25T18:38:15;25.02;;;5.00;;
46407;SDS011;32110;45.724;21.276;2022-08-25T18:41:00;36.17;;;5.88;;
46407;SDS011;32110;45.724;21.276;2022-08-25T18:43:28;23.10;;;5.35;;
46407;SDS011;32110;45.724;21.276;2022-08-25T18:45:56;28.85;;;5.82;;
46407;SDS011;32110;45.724;21.276;2022-08-25T18:48:25;26.42;;;6.70;;
46407;SDS011;32110;45.724;21.276;2022-08-25T18:50:51;30.98;;;6.97;;
46407;SDS011;32110;45.724;21.276;2022-08-25T18:53:19;31.27;;;6.05;;
46407;SDS011;32110;45.724;21.276;2022-08-25T18:55:45;29.98;;;5.93;;
46407;SDS011;32110;45.724;21.276;2022-08-25T18:58:11;34.40;;;5.97;;
46407;SDS011;32110;45.724;21.276;2022-08-25T19:00:39;25.00;;;5.93;;
46407;SDS011;32110;45.724;21.276;2022-08-25T19:03:06;22.83;;;5.45;;
46407;SDS011;32110;45.724;21.276;2022-08-25T19:05:33;21.70;;;5.45;;
46407;SDS011;32110;45.724;21.276;2022-08-25T19:08:02;21.77;;;5.40;;
46407;SDS011;32110;45.724;21.276;2022-08-25T19:10:29;29.40;;;5.40;;
46407;SDS011;32110;45.724;21.276;2022-08-25T19:12:55;32.80;;;5.97;;
46407;SDS011;32110;45.724;21.276;2022-08-25T19:15:22;25.92;;;5.93;;
46407;SDS011;32110;45.724;21.276;2022-08-25T19:17:48;27.90;;;6.40;;
46407;SDS011;32110;45.724;21.276;2022-08-25T19:20:13;33.60;;;5.47;;
46407;SDS011;32110;45.724;21.276;2022-08-25T19:22:39;28.00;;;5.53;;
46407;SDS011;32110;45.724;21.276;2022-08-25T19:25:05;27.33;;;5.82;;
46407;SDS011;32110;45.724;21.276;2022-08-25T19:27:31;34.30;;;5.95;;
46407;SDS011;32110;45.724;21.276;2022-08-25T19:29:57;23.40;;;5.72;;
46407;SDS011;32110;45.724;21.276;2022-08-25T19:32:23;30.02;;;5.00;;
46407;SDS011;32110;45.724;21.276;2022-08-25T19:34:49;21.83;;;5.22;;
46407;SDS011;32110;45.724;21.276;2022-08-25T19:37:19;17.90;;;4.93;;
46407;SDS011;32110;45.724;21.276;2022-08-25T19:39:47;24.75;;;4.57;;
46407;SDS011;32110;45.724;21.276;2022-08-25T19:42:17;25.90;;;5.07;;
46407;SDS011;32110;45.724;21.276;2022-08-25T19:44:43;25.98;;;5.32;;
46407;SDS011;32110;45.724;21.276;2022-08-25T19:47:08;28.23;;;5.38;;
46407;SDS011;32110;45.724;21.276;2022-08-25T19:49:34;21.30;;;5.07;;
46407;SDS011;32110;45.724;21.276;2022-08-25T19:52:02;26.63;;;5.60;;
46407;SDS011;32110;45.724;21.276;2022-08-25T19:54:34;23.10;;;4.70;;
46407;SDS011;32110;45.724;21.276;2022-08-25T19:57:02;23.23;;;5.70;;
46407;SDS011;32110;45.724;21.276;2022-08-25T19:59:32;21.30;;;5.13;;
46407;SDS011;32110;45.724;21.276;2022-08-25T20:01:59;24.13;;;5.22;;
46407;SDS011;32110;45.724;21.276;2022-08-25T20:04:25;17.70;;;5.05;;
46407;SDS011;32110;45.724;21.276;2022-08-25T20:06:50;29.25;;;4.80;;
46407;SDS011;32110;45.724;21.276;2022-08-25T20:09:17;31.95;;;6.68;;
46407;SDS011;32110;45.724;21.276;2022-08-25T20:11:42;22.42;;;5.15;;
46407;SDS011;32110;45.724;21.276;2022-08-25T20:14:08;27.02;;;5.18;;
46407;SDS011;32110;45.724;21.276;2022-08-25T20:16:34;22.88;;;5.60;;
46407;SDS011;32110;45.724;21.276;2022-08-25T20:19:01;17.80;;;5.10;;
46407;SDS011;32110;45.724;21.276;2022-08-25T20:21:27;22.52;;;5.20;;
46407;SDS011;32110;45.724;21.276;2022-08-25T20:23:53;29.42;;;5.25;;
46407;SDS011;32110;45.724;21.276;2022-08-25T20:26:36;28.50;;;5.57;;
46407;SDS011;32110;45.724;21.276;2022-08-25T20:29:02;22.40;;;4.75;;
46407;SDS011;32110;45.724;21.276;2022-08-25T20:31:29;21.13;;;6.60;;
46407;SDS011;32110;45.724;21.276;2022-08-25T20:33:55;20.20;;;5.82;;
46407;SDS011;32110;45.724;21.276;2022-08-25T20:36:21;22.17;;;5.68;;
46407;SDS011;32110;45.724;21.276;2022-08-25T20:38:46;26.75;;;5.90;;
46407;SDS011;32110;45.724;21.276;2022-08-25T20:41:12;25.20;;;5.57;;
46407;SDS011;32110;45.724;21.276;2022-08-25T20:43:38;16.75;;;5.15;;
46407;SDS011;32110;45.724;21.276;2022-08-25T20:46:05;33.13;;;5.60;;
46407;SDS011;32110;45.724;21.276;2022-08-25T20:48:31;24.85;;;5.93;;
46407;SDS011;32110;45.724;21.276;2022-08-25T20:50:57;23.85;;;5.53;;
46407;SDS011;32110;45.724;21.276;2022-08-25T20:53:23;38.42;;;6.10;;
46407;SDS011;32110;45.724;21.276;2022-08-25T20:55:48;22.20;;;5.47;;
46407;SDS011;32110;45.724;21.276;2022-08-25T20:58:14;30.38;;;5.70;;
46407;SDS011;32110;45.724;21.276;2022-08-25T21:00:41;24.38;;;5.38;;
46407;SDS011;32110;45.724;21.276;2022-08-25T21:03:07;24.38;;;5.28;;
46407;SDS011;32110;45.724;21.276;2022-08-25T21:05:33;21.40;;;5.75;;
46407;SDS011;32110;45.724;21.276;2022-08-25T21:07:58;27.85;;;5.88;;
46407;SDS011;32110;45.724;21.276;2022-08-25T21:10:24;20.60;;;5.20;;
46407;SDS011;32110;45.724;21.276;2022-08-25T21:12:49;17.73;;;4.72;;
46407;SDS011;32110;45.724;21.276;2022-08-25T21:15:15;15.63;;;5.45;;
46407;SDS011;32110;45.724;21.276;2022-08-25T21:17:41;18.92;;;5.82;;
46407;SDS011;32110;45.724;21.276;2022-08-25T21:20:07;25.17;;;5.68;;
46407;SDS011;32110;45.724;21.276;2022-08-25T21:22:34;18.25;;;4.55;;
46407;SDS011;32110;45.724;21.276;2022-08-25T21:24:59;20.45;;;5.28;;
46407;SDS011;32110;45.724;21.276;2022-08-25T21:27:25;27.23;;;6.13;;
46407;SDS011;32110;45.724;21.276;2022-08-25T21:29:50;26.63;;;5.88;;
46407;SDS011;32110;45.724;21.276;2022-08-25T21:32:16;22.65;;;5.45;;
46407;SDS011;32110;45.724;21.276;2022-08-25T21:34:43;22.80;;;5.47;;
46407;SDS011;32110;45.724;21.276;2022-08-25T21:37:08;26.27;;;5.43;;
46407;SDS011;32110;45.724;21.276;2022-08-25T21:39:33;24.33;;;4.97;;
46407;SDS011;32110;45.724;21.276;2022-08-25T21:41:59;17.05;;;4.85;;
46407;SDS011;32110;45.724;21.276;2022-08-25T21:44:25;17.63;;;5.18;;
46407;SDS011;32110;45.724;21.276;2022-08-25T21:46:50;21.67;;;5.00;;
46407;SDS011;32110;45.724;21.276;2022-08-25T21:49:16;22.83;;;5.25;;
46407;SDS011;32110;45.724;21.276;2022-08-25T21:51:42;23.23;;;4.80;;
46407;SDS011;32110;45.724;21.276;2022-08-25T21:54:13;18.20;;;4.80;;
46407;SDS011;32110;45.724;21.276;2022-08-25T21:56:43;19.02;;;5.13;;
46407;SDS011;32110;45.724;21.276;2022-08-25T21:59:15;16.65;;;5.05;;
46407;SDS011;32110;45.724;21.276;2022-08-25T22:01:43;18.92;;;4.35;;
46407;SDS011;32110;45.724;21.276;2022-08-25T22:04:09;15.18;;;4.45;;
46407;SDS011;32110;45.724;21.276;2022-08-25T22:06:35;24.33;;;4.53;;
46407;SDS011;32110;45.724;21.276;2022-08-25T22:09:02;15.77;;;4.15;;
46407;SDS011;32110;45.724;21.276;2022-08-25T22:11:28;12.65;;;4.15;;
46407;SDS011;32110;45.724;21.276;2022-08-25T22:13:54;18.48;;;3.97;;
46407;SDS011;32110;45.724;21.276;2022-08-25T22:16:20;18.10;;;4.53;;
46407;SDS011;32110;45.724;21.276;2022-08-25T22:18:47;19.42;;;5.03;;
46407;SDS011;32110;45.724;21.276;2022-08-25T22:21:13;18.25;;;4.57;;
46407;SDS011;32110;45.724;21.276;2022-08-25T22:23:38;21.63;;;4.43;;
46407;SDS011;32110;45.724;21.276;2022-08-25T22:26:04;23.55;;;4.20;;
46407;SDS011;32110;45.724;21.276;2022-08-25T22:28:29;18.95;;;5.05;;
46407;SDS011;32110;45.724;21.276;2022-08-25T22:30:55;13.65;;;4.30;;
46407;SDS011;32110;45.724;21.276;2022-08-25T22:35:49;21.17;;;4.80;;
46407;SDS011;32110;45.724;21.276;2022-08-25T22:38:15;21.98;;;3.92;;
46407;SDS011;32110;45.724;21.276;2022-08-25T22:40:40;22.75;;;4.38;;
46407;SDS011;32110;45.724;21.276;2022-08-25T22:43:06;19.50;;;4.25;;
46407;SDS011;32110;45.724;21.276;2022-08-25T22:45:33;21.58;;;4.60;;
46407;SDS011;32110;45.724;21.276;2022-08-25T22:48:00;16.13;;;3.60;;
46407;SDS011;32110;45.724;21.276;2022-08-25T22:50:25;12.27;;;3.85;;
46407;SDS011;32110;45.724;21.276;2022-08-25T22:52:51;21.92;;;4.88;;
46407;SDS011;32110;45.724;21.276;2022-08-25T22:55:16;21.30;;;4.25;;
46407;SDS011;32110;45.724;21.276;2022-08-25T22:57:42;28.30;;;5.63;;
46407;SDS011;32110;45.724;21.276;2022-08-25T23:00:08;13.50;;;4.32;;
46407;SDS011;32110;45.724;21.276;2022-08-25T23:02:36;13.75;;;4.20;;
46407;SDS011;32110;45.724;21.276;2022-08-25T23:05:02;15.07;;;3.78;;
46407;SDS011;32110;45.724;21.276;2022-08-25T23:07:28;16.65;;;4.05;;
46407;SDS011;32110;45.724;21.276;2022-08-25T23:09:56;22.50;;;4.30;;
46407;SDS011;32110;45.724;21.276;2022-08-25T23:12:23;15.13;;;4.30;;
46407;SDS011;32110;45.724;21.276;2022-08-25T23:14:49;17.65;;;4.13;;
46407;SDS011;32110;45.724;21.276;2022-08-25T23:17:15;25.85;;;4.68;;
46407;SDS011;32110;45.724;21.276;2022-08-25T23:19:41;10.88;;;4.18;;
46407;SDS011;32110;45.724;21.276;2022-08-25T23:22:06;20.83;;;4.75;;
46407;SDS011;32110;45.724;21.276;2022-08-25T23:24:39;18.95;;;4.18;;
46407;SDS011;32110;45.724;21.276;2022-08-25T23:27:06;15.65;;;4.65;;
46407;SDS011;32110;45.724;21.276;2022-08-25T23:29:34;22.60;;;3.70;;
46407;SDS011;32110;45.724;21.276;2022-08-25T23:32:01;18.10;;;4.43;;
46407;SDS011;32110;45.724;21.276;2022-08-25T23:34:28;22.42;;;4.05;;
46407;SDS011;32110;45.724;21.276;2022-08-25T23:36:53;14.10;;;4.07;;
46407;SDS011;32110;45.724;21.276;2022-08-25T23:39:20;23.90;;;4.32;;
46407;SDS011;32110;45.724;21.276;2022-08-25T23:41:45;17.70;;;4.07;;
46407;SDS011;32110;45.724;21.276;2022-08-25T23:44:11;25.58;;;4.57;;
46407;SDS011;32110;45.724;21.276;2022-08-25T23:46:36;18.17;;;3.63;;
46407;SDS011;32110;45.724;21.276;2022-08-25T23:49:03;16.27;;;3.78;;
46407;SDS011;32110;45.724;21.276;2022-08-25T23:51:31;19.33;;;4.18;;
46407;SDS011;32110;45.724;21.276;2022-08-25T23:53:58;21.98;;;4.80;;
46407;SDS011;32110;45.724;21.276;2022-08-25T23:56:27;24.40;;;5.45;;
46407;SDS011;32110;45.724;21.276;2022-08-25T23:58:53;17.65;;;4.03;;
